International Skating Union - Official Site

ISU World Cup Heerenveen
December 9-11, 2016

Draw | Lap Times | Index | World Cup

Referee: Hanjo  HEIDEMAN  (NED)
Starter: Jyrki  JÄÄSKELÄINEN  (FIN)
StartTime: EndTime: Air Temp: Ice Temp: Humidity:
17:15 17:23 15.5℃ -7.8℃ 34%
Result Mass Start Final Ladies 
Rankings as of Dec 10 2016 6:29PM
Rank: No.: Name: Nation: Sprint Points: Time: Behind: Points:
1 261 Bo-Reum  Kim KOR KOR 60 8:31.73 100
2 276 Irene  Schouten NED NED 40 8:31.82 0.09 80
3 245 Francesca  Lollobrigida ITA ITA 20 8:31.83 0.10 70
4 312 Mia  Manganello USA USA 13 8:42.45 10.72 60
5 309 Heather  Bergsma USA USA 6 8:49.59 17.86 50
6 279 Annouk  van der Weijden NED NED 3 8:40.56 8.83 45
7 233 Elena Moeller  Rigas DEN DEN 1 8:42.05 10.32 40
8 256 Nana  Takagi JPN JPN 8:32.13 0.40 36
9 295 Luiza  Zlotkowska POL POL 8:33.18 1.45 32
10 207 Ivanie  Blondin CAN CAN 8:33.59 1.86 28
11 214 Dan  Guo CHN CHN 8:39.65 7.92 24
12 285 Sofie Karoline  Haugen NOR NOR 8:40.02 8.29 21
13 232 Nikola  Zdráhalova CZE CZE 8:40.03 8.30 18
14 266 Ji Woo  Park KOR KOR 8:41.67 9.94 16
15 286 Camilla  Lund NOR NOR 8:41.89 10.16 14
16 234 Saskia  Alusalu EST EST 8:44.94 13.21 12
17 201 Viola  Feichtner AUT AUT 8:48.06 16.33 10
18 305 Yuliya  Skokova RUS RUS 8:51.23 19.50 8
19 292 Magdalena  Czyszczon POL POL 8:54.89 23.16 6
20 230 Natálie  Kerschbaummayr CZE CZE 9:05.88 34.15 5
21 204 Tatsiana  Mikhailava BLR BLR 9:07.21 35.48 4
22 217 Dan  Li CHN CHN 8:49.00 17.27 3